Time;durP1;ratioP1;P1;durP2;ratioP2;P2;SDS_P1;SDS_P2;PMS_P1;PMS_P2;Temp;Humidity;BMP_temperature;BMP_pressure;BME280_temperature;BME280_humidity;BME280_pressure;Samples;Min_cycle;Max_cycle;Signal;HPM_P1;HPM_P2
2021/01/13 00:01:22;;;;;;;0.1;0.1;;;;;;;3.24;88.33105;933.9226;;;;
2021/01/13 00:03:47;;;;;;;0.1;0.1;;;;;;;3.15;88.61328;934.0594;;;;
2021/01/13 00:06:15;;;;;;;0.1;0.1;;;;;;;3.12;87.91211;934.1167;;;;
2021/01/13 00:08:40;;;;;;;0.1;0.1;;;;;;;3.07;87.88965;934.0641;;;;
2021/01/13 00:11:07;;;;;;;0.2;0.2;;;;;;;3;88.00879;934.0286;;;;
2021/01/13 00:13:34;;;;;;;0.1;0.1;;;;;;;3.17;87.88965;934.1223;;;;
2021/01/13 00:15:59;;;;;;;0.2;0.2;;;;;;;3.06;87.76563;934.108;;;;
2021/01/13 00:18:25;;;;;;;0.2;0.2;;;;;;;3.12;87.66504;934.2122;;;;
2021/01/13 00:20:50;;;;;;;0.1;0.1;;;;;;;3.05;88.03125;934.2019;;;;
2021/01/13 00:23:15;;;;;;;0.1;0.1;;;;;;;3.05;88.58105;934.2648;;;;
2021/01/13 00:25:44;;;;;;;0.5;0.3;;;;;;;2.91;89.10254;934.3099;;;;
2021/01/13 00:28:12;;;;;;;0.2;0.2;;;;;;;2.96;89.1123;934.2444;;;;
2021/01/13 00:30:37;;;;;;;0.1;0.1;;;;;;;3;88.63867;934.2706;;;;
2021/01/13 10:21:56;;;;;;;0.4;0.3;;;;;;;4.89;56.92871;938.4168;;;;
2021/01/13 10:24:26;;;;;;;0.9;0.4;;;;;;;5.04;57.14063;938.4573;;;;
2021/01/13 10:27:05;;;;;;;0.8;0.6;;;;;;;4.95;56.38477;938.3784;;;;
2021/01/13 10:29:30;;;;;;;0.4;0.4;;;;;;;5.28;57.72559;938.3526;;;;
2021/01/13 10:31:59;;;;;;;1;0.7;;;;;;;5.53;57.18359;938.4446;;;;
2021/01/13 10:34:24;;;;;;;0.6;0.6;;;;;;;5.49;59.50195;938.4482;;;;
2021/01/13 10:36:50;;;;;;;2.2;0.6;;;;;;;4.65;60.11719;938.3798;;;;
2021/01/13 10:39:15;;;;;;;4;0.5;;;;;;;4.86;61.33105;938.3127;;;;
2021/01/13 10:41:44;;;;;;;1;0.7;;;;;;;4.59;62.41797;938.3153;;;;
2021/01/13 10:44:18;;;;;;;0.4;0.4;;;;;;;4.05;64.4541;938.3778;;;;
2021/01/13 10:46:49;;;;;;;0.5;0.4;;;;;;;3.49;66.92871;938.3298;;;;
2021/01/13 10:49:14;;;;;;;0.8;0.5;;;;;;;3.44;68.29199;938.3336;;;;
2021/01/13 10:51:47;;;;;;;0.5;0.4;;;;;;;3.94;68.05566;938.3885;;;;
2021/01/13 10:54:12;;;;;;;2.7;0.8;;;;;;;3.76;68.97168;938.3214;;;;
2021/01/13 10:56:40;;;;;;;0.6;0.6;;;;;;;3.75;68.25293;938.3322;;;;
2021/01/13 10:59:05;;;;;;;1.3;0.4;;;;;;;3.68;68.25098;938.3298;;;;
2021/01/13 11:01:34;;;;;;;0.3;0.2;;;;;;;3.07;64.94336;938.3248;;;;
2021/01/13 11:04:05;;;;;;;0.6;0.5;;;;;;;3.4;67.62207;938.3386;;;;
2021/01/13 11:06:32;;;;;;;0.4;0.4;;;;;;;3.54;67.81348;938.2394;;;;
2021/01/13 11:09:03;;;;;;;1.2;0.8;;;;;;;3.76;67.97168;938.2496;;;;
2021/01/13 11:11:32;;;;;;;0.5;0.4;;;;;;;3.97;66.39746;938.1667;;;;
2021/01/13 11:14:00;;;;;;;0.7;0.4;;;;;;;3.74;67.58691;938.1964;;;;
2021/01/13 11:16:25;;;;;;;0.8;0.6;;;;;;;3.85;65.82813;938.0344;;;;
2021/01/13 11:18:52;;;;;;;7.2;1.4;;;;;;;3.62;68.66895;938.0773;;;;
2021/01/13 11:21:18;;;;;;;1.4;1;;;;;;;4;67.70605;938.1093;;;;
2021/01/13 11:23:45;;;;;;;1.8;1.2;;;;;;;4.13;67.57129;938.0511;;;;
2021/01/13 11:26:13;;;;;;;3.6;0.8;;;;;;;4.32;63.97656;938.0889;;;;
2021/01/13 11:28:40;;;;;;;9.1;1.2;;;;;;;4.26;66.08301;938.0201;;;;
2021/01/13 11:31:17;;;;;;;0.8;0.5;;;;;;;4.28;65.56836;937.9483;;;;
2021/01/13 11:33:47;;;;;;;0.2;0.2;;;;;;;4.21;63.04883;938.0136;;;;
2021/01/13 11:36:12;;;;;;;1.9;0.6;;;;;;;3.32;65.94922;937.959;;;;
2021/01/13 11:38:42;;;;;;;0.5;0.5;;;;;;;3.87;65.3457;937.9899;;;;
2021/01/13 11:41:07;;;;;;;0.3;0.3;;;;;;;4.36;64.05078;937.9689;;;;
2021/01/13 11:43:34;;;;;;;0.5;0.5;;;;;;;4.37;63.94922;937.9005;;;;
2021/01/13 11:46:01;;;;;;;1.1;0.6;;;;;;;4.42;62.62891;937.9073;;;;
2021/01/13 11:48:28;;;;;;;0.3;0.3;;;;;;;4.83;62.0918;937.8519;;;;
2021/01/13 11:50:53;;;;;;;7.6;2.2;;;;;;;4.38;62.46582;937.678;;;;
2021/01/13 11:53:18;;;;;;;14.5;8.1;;;;;;;4.17;64.72949;937.7143;;;;
2021/01/13 11:55:53;;;;;;;12.6;6.4;;;;;;;4.32;62.7832;937.75;;;;
2021/01/13 11:58:18;;;;;;;1.4;1;;;;;;;4.54;63.05176;937.6041;;;;
2021/01/13 12:00:50;;;;;;;1.2;0.6;;;;;;;4.71;61.9502;937.6301;;;;
2021/01/13 12:03:23;;;;;;;1;0.9;;;;;;;4.84;60.89844;937.6163;;;;
2021/01/13 12:05:47;;;;;;;1.2;0.9;;;;;;;4.53;60.48242;937.6433;;;;
2021/01/13 12:08:14;;;;;;;0.6;0.6;;;;;;;4.81;58.62012;937.5098;;;;
2021/01/13 12:10:44;;;;;;;0.6;0.3;;;;;;;5.14;62.24902;937.558;;;;
2021/01/13 12:13:14;;;;;;;0.9;0.7;;;;;;;5.12;63.50879;937.5188;;;;
2021/01/13 12:15:42;;;;;;;2.9;1.6;;;;;;;4.84;63.16504;937.558;;;;
2021/01/13 12:18:08;;;;;;;0.8;0.8;;;;;;;4.45;63.0498;937.4382;;;;
2021/01/13 12:20:33;;;;;;;3.4;1.7;;;;;;;4.28;67.3916;937.4092;;;;
2021/01/13 12:23:03;;;;;;;14.6;7.6;;;;;;;4.53;68.24219;937.3399;;;;
2021/01/13 12:25:28;;;;;;;4;1.9;;;;;;;4.56;65.92578;937.343;;;;
2021/01/13 12:27:57;;;;;;;2.3;1.4;;;;;;;4.34;64.03516;937.2076;;;;
2021/01/13 12:30:27;;;;;;;16.6;7.7;;;;;;;3.51;70.30273;937.3334;;;;
2021/01/13 12:32:54;;;;;;;2.5;1.6;;;;;;;3.66;72.28027;937.3409;;;;
2021/01/13 12:35:19;;;;;;;1.4;0.9;;;;;;;3.68;71.30762;937.2438;;;;
2021/01/13 12:37:46;;;;;;;2.3;1.5;;;;;;;4.1;68.11621;937.1598;;;;
2021/01/13 12:40:12;;;;;;;5.2;2.4;;;;;;;4.32;69.76074;937.014;;;;
2021/01/13 12:42:42;;;;;;;0.7;0.7;;;;;;;3.77;72.16504;937.058;;;;
2021/01/13 12:45:18;;;;;;;0.8;0.7;;;;;;;4.09;66.50488;937.1152;;;;
2021/01/13 12:47:46;;;;;;;1.7;1.3;;;;;;;4.42;70.02441;937.1181;;;;
2021/01/13 12:50:17;;;;;;;2.3;1.7;;;;;;;4.25;69.20898;937.0881;;;;
2021/01/13 12:52:42;;;;;;;2.3;1.6;;;;;;;4.67;69.52539;937.0503;;;;
2021/01/13 12:55:15;;;;;;;0.5;0.5;;;;;;;4.01;64.57129;936.8552;;;;
2021/01/13 12:57:44;;;;;;;0.9;0.7;;;;;;;3.95;71.4873;936.9089;;;;
2021/01/13 13:00:09;;;;;;;1.2;0.9;;;;;;;3.87;70.58594;936.8945;;;;
2021/01/13 13:02:35;;;;;;;1.5;0.6;;;;;;;4.07;70.36035;936.8262;;;;
2021/01/13 13:05:00;;;;;;;1;0.8;;;;;;;4.09;70.45313;936.7859;;;;
2021/01/13 13:07:25;;;;;;;4;0.9;;;;;;;4.17;66.40527;936.7166;;;;
2021/01/13 13:09:53;;;;;;;0.8;0.4;;;;;;;3.38;64.7002;936.7162;;;;
2021/01/13 13:12:18;;;;;;;1.1;0.7;;;;;;;3.17;69.47168;936.6459;;;;
2021/01/13 13:14:44;;;;;;;0.7;0.5;;;;;;;3.11;72.16406;936.7576;;;;
2021/01/13 13:17:09;;;;;;;1.5;0.7;;;;;;;3.41;68.3877;936.7174;;;;
2021/01/13 13:19:35;;;;;;;3.1;1.7;;;;;;;3.09;70.04199;936.7115;;;;
2021/01/13 13:22:00;;;;;;;5.6;2.1;;;;;;;3.16;70.87207;936.6226;;;;
2021/01/13 13:24:28;;;;;;;1.3;1;;;;;;;3.26;65.10742;936.6625;;;;
2021/01/13 13:26:53;;;;;;;9;1.7;;;;;;;3.32;66.95996;936.5672;;;;
2021/01/13 13:29:21;;;;;;;0.6;0.5;;;;;;;3.58;69.26855;936.5539;;;;
2021/01/13 13:31:46;;;;;;;1.2;0.7;;;;;;;3.69;64.78027;936.5064;;;;
2021/01/13 13:34:15;;;;;;;1.5;0.6;;;;;;;3.71;69.03027;936.415;;;;
2021/01/13 13:36:40;;;;;;;0.6;0.6;;;;;;;3.35;67.7373;936.3879;;;;
2021/01/13 13:39:05;;;;;;;1.1;0.9;;;;;;;3.47;70.55371;936.381;;;;
2021/01/13 13:41:31;;;;;;;0.6;0.5;;;;;;;3.64;67.20996;936.2427;;;;
2021/01/13 13:43:59;;;;;;;0.7;0.7;;;;;;;3.78;67.22168;936.3503;;;;
2021/01/13 13:46:24;;;;;;;1.6;0.3;;;;;;;3.66;65.67383;936.3716;;;;
2021/01/13 13:48:53;;;;;;;3.1;1.7;;;;;;;3.66;65.29297;936.3191;;;;
2021/01/13 13:51:22;;;;;;;0.7;0.6;;;;;;;3.9;65.43164;936.2851;;;;
2021/01/13 13:53:47;;;;;;;1;0.7;;;;;;;4.16;65.63965;936.3759;;;;
2021/01/13 13:56:16;;;;;;;2;0.6;;;;;;;4.22;64.01758;936.3514;;;;
2021/01/13 13:58:41;;;;;;;0.4;0.4;;;;;;;4.01;64.50391;936.3469;;;;
2021/01/13 14:01:06;;;;;;;0.7;0.6;;;;;;;3.83;66.25195;936.3515;;;;
2021/01/13 14:03:32;;;;;;;0.4;0.4;;;;;;;3.87;66.85352;936.355;;;;
2021/01/13 14:05:58;;;;;;;0.9;0.8;;;;;;;3.36;67.57031;936.3959;;;;
2021/01/13 14:08:25;;;;;;;0.8;0.6;;;;;;;3.32;67.22852;936.3169;;;;
2021/01/13 14:10:50;;;;;;;0.5;0.3;;;;;;;3.95;65.06738;936.3283;;;;
2021/01/13 14:14:07;;;;;;;0.6;0.3;;;;;;;4.52;62.59863;936.3524;;;;
2021/01/13 14:17:17;;;;;;;0.7;0.5;;;;;;;4.78;62.6709;936.2971;;;;
2021/01/13 14:20:26;;;;;;;1.4;0.6;;;;;;;4.57;59.2959;936.3159;;;;
2021/01/13 14:23:35;;;;;;;1.2;0.7;;;;;;;4.57;61.00781;936.3286;;;;
2021/01/13 14:26:47;;;;;;;2.2;0.8;;;;;;;4.47;59.56348;936.2841;;;;
2021/01/13 14:29:56;;;;;;;0.5;0.5;;;;;;;4.66;60.08496;936.2439;;;;
2021/01/13 14:33:05;;;;;;;0.4;0.4;;;;;;;4.72;60.16113;936.2589;;;;
2021/01/13 14:36:13;;;;;;;2.2;1.9;;;;;;;4.06;64.56641;936.2634;;;;
2021/01/13 14:39:23;;;;;;;1;0.8;;;;;;;3.8;67.16797;936.2737;;;;
2021/01/13 14:42:32;;;;;;;2.5;1;;;;;;;3.77;64.58887;936.2026;;;;
2021/01/13 14:45:41;;;;;;;0.7;0.7;;;;;;;3.87;65.21289;936.2927;;;;
2021/01/13 14:48:50;;;;;;;0.6;0.6;;;;;;;3.56;64.35645;936.2699;;;;
2021/01/13 14:51:21;;;;;;;2;1.2;;;;;;;2.83;64.13379;936.2139;;;;
2021/01/13 14:53:53;;;;;;;1.1;0.9;;;;;;;3.03;65.4541;936.236;;;;
2021/01/13 14:56:26;;;;;;;2.6;1.4;;;;;;;2.46;68.32422;936.1686;;;;
2021/01/13 14:58:51;;;;;;;2.7;1.6;;;;;;;2.79;66.7168;936.2413;;;;
2021/01/13 15:01:43;;;;;;;1.9;1.2;;;;;;;3.08;65.6084;936.2275;;;;
2021/01/13 15:04:18;;;;;;;1.6;1.4;;;;;;;3.17;66.26172;936.2581;;;;
2021/01/13 15:06:49;;;;;;;1.8;1.3;;;;;;;3.27;66.41211;936.2601;;;;
2021/01/13 15:09:23;;;;;;;2;1.3;;;;;;;2.49;69.23633;936.1642;;;;
2021/01/13 15:11:58;;;;;;;0.7;0.7;;;;;;;2.15;71.18652;936.262;;;;
2021/01/13 15:14:23;;;;;;;2.9;0.9;;;;;;;2.39;71.83984;936.2224;;;;
2021/01/13 15:16:50;;;;;;;1.5;1.1;;;;;;;2.62;70.50098;936.1133;;;;
2021/01/13 15:19:18;;;;;;;1.3;1.1;;;;;;;2.54;70.06348;936.1356;;;;
2021/01/13 15:22:05;;;;;;;1.7;1.6;;;;;;;2.64;70.96387;936.1345;;;;
2021/01/13 15:25:15;;;;;;;2.2;1.2;;;;;;;2.32;70.89941;936.0291;;;;
2021/01/13 15:28:24;;;;;;;3.1;1.3;;;;;;;2.4;73.31055;936.1859;;;;
2021/01/13 15:31:23;;;;;;;3;1.3;;;;;;;2.51;72.97266;936.0576;;;;
2021/01/13 15:33:49;;;;;;;2.1;1.6;;;;;;;2.41;73.1123;936.0266;;;;
2021/01/13 15:36:14;;;;;;;1.6;0.8;;;;;;;2.26;72.13379;935.9673;;;;
2021/01/13 15:38:39;;;;;;;1.9;1.3;;;;;;;2.41;73.45801;936.0255;;;;
2021/01/13 15:41:04;;;;;;;1.8;1.2;;;;;;;2.3;72.80273;935.9799;;;;
2021/01/13 15:43:29;;;;;;;1.7;0.6;;;;;;;1.67;73.95605;935.88;;;;
2021/01/13 15:45:59;;;;;;;4;0.8;;;;;;;1.9;73.48242;935.962;;;;
2021/01/13 15:48:29;;;;;;;2;1.5;;;;;;;2.07;74.30664;935.9583;;;;
2021/01/13 15:50:57;;;;;;;1.5;0.9;;;;;;;2.09;74.09863;935.7488;;;;
2021/01/13 15:53:27;;;;;;;0.9;0.9;;;;;;;1.99;74.24805;935.8453;;;;
2021/01/13 15:55:51;;;;;;;2.3;1.3;;;;;;;2;73.93555;935.6905;;;;
2021/01/13 15:58:18;;;;;;;1;0.9;;;;;;;1.88;74.62988;935.6958;;;;
2021/01/13 16:00:43;;;;;;;0.9;0.9;;;;;;;2.03;74.17578;935.7047;;;;
2021/01/13 16:03:12;;;;;;;3.3;1.8;;;;;;;2.01;75.12402;935.7425;;;;
2021/01/13 16:05:37;;;;;;;2.5;1.6;;;;;;;2.03;74.89258;935.5555;;;;
2021/01/13 16:08:02;;;;;;;0.9;0.8;;;;;;;1.8;74.52734;935.7228;;;;
2021/01/13 16:10:31;;;;;;;3.4;2.2;;;;;;;1.89;75.97559;935.6547;;;;
2021/01/13 16:12:57;;;;;;;1.6;1.1;;;;;;;1.74;75.69141;935.6038;;;;
2021/01/13 16:15:30;;;;;;;1.2;0.7;;;;;;;1.99;75.2666;935.5168;;;;
2021/01/13 16:18:02;;;;;;;3;1.5;;;;;;;1.76;75.30469;935.5617;;;;
2021/01/13 16:20:34;;;;;;;1.5;1.1;;;;;;;1.83;75.76465;935.4767;;;;
2021/01/13 16:23:02;;;;;;;3.9;1.4;;;;;;;1.94;75.50293;935.5087;;;;
2021/01/13 16:25:32;;;;;;;4.6;2.2;;;;;;;1.73;76.07031;935.4138;;;;
2021/01/13 16:27:57;;;;;;;4.7;1.9;;;;;;;1.71;76.62598;935.4428;;;;
2021/01/13 16:30:27;;;;;;;2.7;1.8;;;;;;;1.7;76.23145;935.4767;;;;
2021/01/13 16:33:03;;;;;;;9.5;1.6;;;;;;;1.67;76.59668;935.3645;;;;
2021/01/13 16:35:30;;;;;;;3.8;1.7;;;;;;;1.61;77.5791;935.4615;;;;
2021/01/13 16:37:55;;;;;;;1.7;1;;;;;;;1.46;78.36816;935.4658;;;;
2021/01/13 16:40:26;;;;;;;1.8;1.5;;;;;;;0.93;79.56543;935.2967;;;;
2021/01/13 16:42:51;;;;;;;2.2;1.6;;;;;;;1.04;78.42578;935.3995;;;;
2021/01/13 16:45:19;;;;;;;3.3;2.2;;;;;;;1.02;79.79395;935.3531;;;;
2021/01/13 16:47:47;;;;;;;2.7;1.8;;;;;;;1.2;78.65723;935.291;;;;
2021/01/13 16:50:12;;;;;;;3.6;1.7;;;;;;;1.24;78.47168;935.3864;;;;
2021/01/13 16:52:37;;;;;;;1.4;1.1;;;;;;;1.48;77.41211;935.1859;;;;
2021/01/13 16:55:04;;;;;;;2.5;1.8;;;;;;;1.55;75.71289;935.2952;;;;
2021/01/13 16:57:37;;;;;;;2.5;1.6;;;;;;;1.53;76.95117;935.2788;;;;
2021/01/13 17:00:02;;;;;;;5.4;3.5;;;;;;;1.68;76.19434;935.345;;;;
2021/01/13 17:02:31;;;;;;;8.5;4.8;;;;;;;1.61;76.9541;935.308;;;;
2021/01/13 17:05:00;;;;;;;4.6;2;;;;;;;1.26;76.24219;935.1544;;;;
2021/01/13 17:07:29;;;;;;;2.8;1.8;;;;;;;1.3;76.39551;935.3583;;;;
2021/01/13 17:09:54;;;;;;;14.3;5.4;;;;;;;1.42;76.51563;935.2712;;;;
2021/01/13 17:12:19;;;;;;;4;1.6;;;;;;;1.53;76.4043;935.1981;;;;
2021/01/13 17:14:47;;;;;;;4.6;3.1;;;;;;;1.65;76.29004;935.1822;;;;
2021/01/13 17:17:15;;;;;;;7.2;3.2;;;;;;;1.7;75.49414;935.2195;;;;
2021/01/13 17:19:40;;;;;;;3.3;2;;;;;;;1.69;75.56055;935.1987;;;;
2021/01/13 17:22:06;;;;;;;5.3;2.4;;;;;;;1.71;75.02637;935.2073;;;;
2021/01/13 17:24:32;;;;;;;3.2;2.4;;;;;;;1.67;75.54395;935.2255;;;;
2021/01/13 17:26:57;;;;;;;2.7;1.7;;;;;;;1.75;74.98828;935.1319;;;;
2021/01/13 17:29:22;;;;;;;5.5;3.5;;;;;;;1.66;75.30762;935.0115;;;;
2021/01/13 17:31:48;;;;;;;1.4;1.3;;;;;;;1.45;76.71387;935.2155;;;;
2021/01/13 17:34:13;;;;;;;6.4;2;;;;;;;1.39;77.02539;935.0511;;;;
2021/01/13 17:36:38;;;;;;;4.6;2.4;;;;;;;1.46;77.2168;935.3466;;;;
2021/01/13 17:39:07;;;;;;;1.8;1.6;;;;;;;1.33;77.26172;934.9783;;;;
2021/01/13 17:41:32;;;;;;;2.7;1.5;;;;;;;1.34;77.45313;935.1333;;;;
2021/01/13 17:44:05;;;;;;;8.9;2.7;;;;;;;1.47;76.83887;935.0591;;;;
2021/01/13 17:46:31;;;;;;;4.8;3;;;;;;;1.48;76.95215;935.1003;;;;
2021/01/13 17:48:55;;;;;;;3.7;2.6;;;;;;;1.47;77.375;935.0426;;;;
2021/01/13 17:51:20;;;;;;;3.8;1.8;;;;;;;1.43;76.82227;934.8571;;;;
2021/01/13 17:53:45;;;;;;;2.7;2;;;;;;;1.09;78.27734;935.1489;;;;
2021/01/13 17:56:10;;;;;;;3.8;2.2;;;;;;;0.87;79.00781;934.9324;;;;
2021/01/13 17:58:35;;;;;;;1.5;1.1;;;;;;;0.96;79.24609;934.9531;;;;
2021/01/13 18:01:01;;;;;;;3.5;2.2;;;;;;;0.98;78.36914;934.9095;;;;
2021/01/13 18:03:26;;;;;;;3.2;1.3;;;;;;;1.28;77.27539;934.8126;;;;
2021/01/13 18:05:51;;;;;;;5.9;2.5;;;;;;;1.32;76.91309;935.0306;;;;
2021/01/13 18:08:16;;;;;;;4.4;2.7;;;;;;;1.13;78.16113;934.9286;;;;
2021/01/13 18:10:56;;;;;;;4.5;1.5;;;;;;;1.1;78.87109;934.6953;;;;
2021/01/13 18:13:21;;;;;;;4.1;1.8;;;;;;;1.14;78.26563;934.6187;;;;
2021/01/13 18:15:50;;;;;;;1.5;1.3;;;;;;;1.11;78.26953;934.8306;;;;
2021/01/13 18:18:15;;;;;;;2.4;1.5;;;;;;;1.21;77.36133;934.8505;;;;
2021/01/13 18:20:43;;;;;;;2.1;1.3;;;;;;;1.25;76.67676;934.7933;;;;
2021/01/13 18:23:10;;;;;;;2.4;1.3;;;;;;;1.31;76.55371;934.6692;;;;
2021/01/13 18:25:35;;;;;;;1.9;1.5;;;;;;;1.13;76.63281;934.6716;;;;
2021/01/13 18:28:01;;;;;;;2.1;1.3;;;;;;;0.88;78.58496;934.7989;;;;
2021/01/13 18:30:26;;;;;;;1.3;1;;;;;;;0.73;77.7998;934.7777;;;;
2021/01/13 18:32:51;;;;;;;2.1;1.2;;;;;;;0.99;78.53809;934.9119;;;;
2021/01/13 18:35:17;;;;;;;0.9;0.8;;;;;;;1.36;77.09863;934.8806;;;;
2021/01/13 18:37:42;;;;;;;1.9;0.8;;;;;;;1.46;76.0791;934.7569;;;;
2021/01/13 18:40:07;;;;;;;1.9;1.5;;;;;;;1.21;76.72461;934.9037;;;;
2021/01/13 18:42:32;;;;;;;1.1;1;;;;;;;1.28;76.14648;934.8063;;;;
2021/01/13 18:44:59;;;;;;;5.7;3.8;;;;;;;1.31;76.45313;934.8293;;;;
2021/01/13 18:47:24;;;;;;;5.1;2.1;;;;;;;1.31;77.31348;934.8075;;;;
2021/01/13 18:49:50;;;;;;;2;1.2;;;;;;;1.31;77.12402;934.848;;;;
2021/01/13 18:52:16;;;;;;;4.6;2.6;;;;;;;1.2;77.43945;934.779;;;;
2021/01/13 18:54:42;;;;;;;5.8;3.4;;;;;;;1.27;78.01855;934.8503;;;;
2021/01/13 18:57:07;;;;;;;3;2.1;;;;;;;1.41;77.26465;934.9078;;;;
2021/01/13 18:59:33;;;;;;;8.7;2.6;;;;;;;1.21;78.36816;934.8092;;;;
2021/01/13 19:02:00;;;;;;;14.9;4.2;;;;;;;1.26;78.58887;934.6563;;;;
2021/01/13 19:04:25;;;;;;;1.9;1.5;;;;;;;0.94;80.04688;934.8714;;;;
2021/01/13 19:06:50;;;;;;;1.6;1.4;;;;;;;1.1;79.98828;934.6702;;;;
2021/01/13 19:09:15;;;;;;;2;1.5;;;;;;;1.17;79.88965;934.6456;;;;
2021/01/13 19:11:46;;;;;;;13.9;3.3;;;;;;;1.1;79.86719;934.6792;;;;
2021/01/13 19:14:12;;;;;;;2;1.3;;;;;;;1.18;79.21191;934.5669;;;;
2021/01/13 19:16:37;;;;;;;2;1;;;;;;;1.34;78.7041;934.6691;;;;
2021/01/13 19:19:02;;;;;;;0.9;0.9;;;;;;;1.29;79.12988;934.685;;;;
2021/01/13 19:21:27;;;;;;;1.1;1;;;;;;;1.26;78.8125;934.7787;;;;
2021/01/13 19:23:53;;;;;;;1.2;0.9;;;;;;;1.16;78.74902;934.6647;;;;
2021/01/13 19:26:18;;;;;;;1.6;0.8;;;;;;;1.21;77.78516;934.5164;;;;
2021/01/13 19:28:42;;;;;;;3.7;1.2;;;;;;;1.23;76.96191;934.3156;;;;
2021/01/13 19:31:08;;;;;;;1;0.9;;;;;;;1.31;77.40332;934.46;;;;
2021/01/13 19:33:32;;;;;;;1.1;0.9;;;;;;;1.49;75.63672;934.4072;;;;
2021/01/13 19:35:57;;;;;;;3.9;1.1;;;;;;;1.36;73.7793;934.4146;;;;
2021/01/13 19:38:23;;;;;;;1.7;1.4;;;;;;;1.55;75.07422;934.2366;;;;
2021/01/13 19:40:54;;;;;;;14.4;8;;;;;;;1.79;74.25781;934.0754;;;;
2021/01/13 19:43:19;;;;;;;10.7;6.4;;;;;;;1.69;73.77051;933.9141;;;;
2021/01/13 19:45:49;;;;;;;11.1;7.4;;;;;;;1.67;73.58691;934.0954;;;;
2021/01/13 19:48:14;;;;;;;7.5;3.9;;;;;;;1.61;74.2041;933.912;;;;
2021/01/13 19:50:39;;;;;;;2.5;1.6;;;;;;;1.73;76.22656;933.7428;;;;
2021/01/13 19:53:06;;;;;;;1.9;1.7;;;;;;;1.77;77.78906;933.8895;;;;
2021/01/13 19:55:29;;;;;;;2.8;1.4;;;;;;;1.91;75.39746;933.74;;;;
2021/01/13 19:57:57;;;;;;;14.3;7;;;;;;;1.91;75.22949;933.8019;;;;
2021/01/13 20:00:22;;;;;;;4.4;2.8;;;;;;;1.86;75.42285;933.6936;;;;
2021/01/13 20:02:47;;;;;;;15.3;6.3;;;;;;;2.04;74.14355;933.6252;;;;
2021/01/13 20:05:12;;;;;;;2.3;1.3;;;;;;;2.04;73.65332;933.4204;;;;
2021/01/13 20:07:38;;;;;;;3.7;1.5;;;;;;;2.06;72.37793;933.5255;;;;
2021/01/13 20:10:03;;;;;;;1.2;1;;;;;;;2;73.11914;933.4313;;;;
2021/01/13 20:12:29;;;;;;;2.4;1.5;;;;;;;2.1;74.00977;933.5144;;;;
2021/01/13 20:14:55;;;;;;;3.8;1.8;;;;;;;2.03;73.06738;933.4827;;;;
2021/01/13 20:17:20;;;;;;;1.8;1.3;;;;;;;2.16;73.99609;933.4478;;;;
2021/01/13 20:19:45;;;;;;;16.7;9.1;;;;;;;2.17;72.8125;933.4734;;;;
2021/01/13 20:22:11;;;;;;;3.5;1.5;;;;;;;2.14;74.30859;933.5737;;;;
2021/01/13 20:24:38;;;;;;;3.7;1.8;;;;;;;2.18;77.9873;933.5168;;;;
2021/01/13 20:27:02;;;;;;;0.9;0.7;;;;;;;2.23;80.64941;933.3915;;;;
2021/01/13 20:29:30;;;;;;;2;0.8;;;;;;;2.43;82.0332;933.4658;;;;
2021/01/13 20:31:55;;;;;;;0.7;0.7;;;;;;;2.49;83.89258;933.3859;;;;
2021/01/13 20:34:20;;;;;;;0.3;0.3;;;;;;;2.48;85.01367;933.3158;;;;
2021/01/13 20:36:45;;;;;;;0.1;0.1;;;;;;;2.55;85.18262;933.2228;;;;
2021/01/13 20:39:11;;;;;;;0.1;0.1;;;;;;;2.62;85.39941;933.2606;;;;
2021/01/13 20:41:36;;;;;;;0.5;0.5;;;;;;;2.7;85.44727;933.2205;;;;
2021/01/13 20:44:01;;;;;;;1;0.6;;;;;;;2.82;85.33789;933.1633;;;;
2021/01/13 20:46:26;;;;;;;0.4;0.4;;;;;;;2.83;85.8125;933.1369;;;;
2021/01/13 20:48:51;;;;;;;0.2;0.2;;;;;;;2.95;85.59961;933.0594;;;;
2021/01/13 20:51:16;;;;;;;2.1;1.1;;;;;;;2.4;85.66699;932.9844;;;;
2021/01/13 20:53:43;;;;;;;7;3.7;;;;;;;2.11;87.48047;932.9776;;;;
2021/01/13 20:56:08;;;;;;;2.1;1.1;;;;;;;2.27;87.51172;932.8484;;;;
2021/01/13 20:58:36;;;;;;;2.9;2.2;;;;;;;2.22;88.3877;932.8251;;;;
2021/01/13 21:01:00;;;;;;;7.5;2.2;;;;;;;2.11;89.54004;932.8614;;;;
2021/01/13 21:03:25;;;;;;;2.6;1.1;;;;;;;1.89;90.96973;932.9778;;;;
2021/01/13 21:05:50;;;;;;;2;0.9;;;;;;;1.94;91.52832;933.0217;;;;
2021/01/13 21:08:17;;;;;;;3.4;1.2;;;;;;;2.01;91.4873;932.8705;;;;
2021/01/13 21:10:46;;;;;;;4.3;2.5;;;;;;;2.15;91.08203;932.9331;;;;
2021/01/13 21:13:11;;;;;;;47.4;21.7;;;;;;;2.17;90.99414;932.7797;;;;
2021/01/13 21:15:37;;;;;;;7.2;4.2;;;;;;;2.04;91.5293;932.8214;;;;
2021/01/13 21:18:03;;;;;;;24;10.8;;;;;;;1.98;92.02832;932.8394;;;;
2021/01/13 21:20:28;;;;;;;11.3;6.2;;;;;;;2.11;91.4082;932.8275;;;;
2021/01/13 21:22:56;;;;;;;0.4;0.4;;;;;;;1.93;91.95117;932.8865;;;;
2021/01/13 21:25:21;;;;;;;2.4;1.8;;;;;;;1.85;93.06348;932.753;;;;
2021/01/13 21:27:46;;;;;;;2;1.4;;;;;;;1.97;93.125;932.7936;;;;
2021/01/13 21:30:12;;;;;;;8;3.3;;;;;;;2.15;92.55957;932.8342;;;;
2021/01/13 21:32:37;;;;;;;1.9;1.1;;;;;;;2.2;92.31445;932.7302;;;;
2021/01/13 21:35:02;;;;;;;2.2;0.7;;;;;;;2.17;92.11621;932.8169;;;;
2021/01/13 21:37:29;;;;;;;2.2;1.6;;;;;;;2.2;92.09961;932.699;;;;
2021/01/13 21:39:53;;;;;;;2.4;1.5;;;;;;;2.28;91.95996;932.6509;;;;
2021/01/13 21:42:19;;;;;;;11.5;5.4;;;;;;;2.23;91.67969;932.6956;;;;
2021/01/13 21:44:44;;;;;;;56.4;26.5;;;;;;;2.2;91.83105;932.6487;;;;
2021/01/13 21:47:11;;;;;;;12.4;7.4;;;;;;;2.16;92.53711;932.6013;;;;
2021/01/13 21:49:35;;;;;;;33;13.5;;;;;;;2.26;92.40234;932.545;;;;
2021/01/13 21:52:01;;;;;;;7.1;3.9;;;;;;;2.35;91.73926;932.6136;;;;
2021/01/13 21:54:26;;;;;;;0.5;0.4;;;;;;;2.1;92.69336;932.527;;;;
2021/01/13 21:56:51;;;;;;;3;2;;;;;;;2.25;92.4248;932.5572;;;;
2021/01/13 21:59:16;;;;;;;11.9;5.2;;;;;;;2.19;92.70215;932.5245;;;;
2021/01/13 22:01:41;;;;;;;0.4;0.4;;;;;;;2.11;93.17676;932.5486;;;;
2021/01/13 22:04:07;;;;;;;2.1;1.2;;;;;;;2.17;93.20215;932.6008;;;;
2021/01/13 22:06:32;;;;;;;3.7;1.8;;;;;;;2.54;92.22852;932.4767;;;;
2021/01/13 22:08:58;;;;;;;6.3;3;;;;;;;2.59;91.13184;932.5569;;;;
2021/01/13 22:11:23;;;;;;;5.4;1.8;;;;;;;2.55;90.87402;932.426;;;;
2021/01/13 22:13:48;;;;;;;21.3;9.1;;;;;;;2.74;90.47949;932.5591;;;;
2021/01/13 22:16:14;;;;;;;17.8;5.8;;;;;;;3;89.44531;932.632;;;;
2021/01/13 22:18:39;;;;;;;9.5;4.8;;;;;;;2.95;88.69531;932.4427;;;;
2021/01/13 22:21:04;;;;;;;46.2;20.8;;;;;;;2.94;88.96289;932.6933;;;;
2021/01/13 22:23:36;;;;;;;1.7;1.4;;;;;;;2.68;89.69434;932.4947;;;;
2021/01/13 22:26:03;;;;;;;6.5;3;;;;;;;2.84;89.45801;932.438;;;;
2021/01/13 22:28:28;;;;;;;13.8;6.8;;;;;;;3.06;88.59668;932.307;;;;
2021/01/13 22:30:54;;;;;;;5.7;2.8;;;;;;;3.16;87.87402;932.1326;;;;
2021/01/13 22:33:19;;;;;;;3;1.7;;;;;;;2.92;88.16016;932.3271;;;;
2021/01/13 22:35:48;;;;;;;4;2.2;;;;;;;3.03;88.31934;932.4925;;;;
2021/01/13 22:38:13;;;;;;;5.7;2.3;;;;;;;3.03;88.1416;932.4801;;;;
2021/01/13 22:40:49;;;;;;;2.1;1.1;;;;;;;3.23;87.75488;932.4158;;;;
2021/01/13 22:43:14;;;;;;;6.6;3.7;;;;;;;3.33;86.70996;932.1959;;;;
2021/01/13 22:45:40;;;;;;;10.1;3.9;;;;;;;3.16;87.2793;932.1326;;;;
2021/01/13 22:48:04;;;;;;;4.1;2.7;;;;;;;3.19;87.11816;932.2186;;;;
2021/01/13 22:50:30;;;;;;;3.8;1.5;;;;;;;3.24;87.37695;932.1415;;;;
2021/01/13 22:52:56;;;;;;;6.6;2.2;;;;;;;3.04;87.63672;932.2286;;;;
2021/01/13 22:55:21;;;;;;;3.1;1.7;;;;;;;3.24;87.4668;932.1825;;;;
2021/01/13 22:57:46;;;;;;;1.9;1;;;;;;;3.42;86.84082;932.2567;;;;
2021/01/13 23:00:11;;;;;;;1.4;1.1;;;;;;;3.42;86.31348;932.1323;;;;
2021/01/13 23:02:36;;;;;;;2.3;1.6;;;;;;;3.37;86.31348;931.9788;;;;
2021/01/13 23:05:01;;;;;;;1.8;1;;;;;;;3.42;86.14453;932.1323;;;;
2021/01/13 23:07:27;;;;;;;1.6;0.9;;;;;;;3.54;86.07715;932.0786;;;;
2021/01/13 23:09:52;;;;;;;2.1;1.6;;;;;;;3.45;86.09375;932.1967;;;;
2021/01/13 23:12:19;;;;;;;2.2;1.6;;;;;;;3.54;85.55078;932.1944;;;;
2021/01/13 23:14:44;;;;;;;0.5;0.5;;;;;;;3.48;85.81836;932.2252;;;;
2021/01/13 23:17:10;;;;;;;0.2;0.2;;;;;;;3.16;87.58301;932.1767;;;;
2021/01/13 23:19:35;;;;;;;0.4;0.3;;;;;;;3.13;87.72266;932.1201;;;;
2021/01/13 23:22:01;;;;;;;0.2;0.2;;;;;;;3.39;86.99121;932.1753;;;;
2021/01/13 23:24:26;;;;;;;0.2;0.2;;;;;;;3.49;86.37305;932.0154;;;;
2021/01/13 23:26:52;;;;;;;0.3;0.3;;;;;;;3.59;86.06543;932.0137;;;;
2021/01/13 23:29:17;;;;;;;0.2;0.2;;;;;;;3.58;85.50195;932.09;;;;
2021/01/13 23:31:43;;;;;;;0.4;0.4;;;;;;;3.56;85.64258;932.1019;;;;
2021/01/13 23:34:08;;;;;;;1.3;0.6;;;;;;;3.66;85.17969;932.015;;;;
2021/01/13 23:36:35;;;;;;;0.4;0.4;;;;;;;3.72;84.69922;931.8647;;;;
2021/01/13 23:39:00;;;;;;;0.4;0.4;;;;;;;3.74;84.41992;931.9785;;;;
2021/01/13 23:41:27;;;;;;;0.5;0.5;;;;;;;3.73;84.62207;931.9807;;;;
2021/01/13 23:43:52;;;;;;;0.8;0.8;;;;;;;3.61;84.6875;931.8264;;;;
2021/01/13 23:46:17;;;;;;;2.5;1.1;;;;;;;3.48;85.62793;931.9695;;;;
2021/01/13 23:48:42;;;;;;;0.7;0.5;;;;;;;3.27;86.09082;931.8047;;;;
2021/01/13 23:51:07;;;;;;;1;0.7;;;;;;;3.09;87.32129;931.8555;;;;
2021/01/13 23:53:32;;;;;;;1;0.7;;;;;;;3.24;87.09375;931.9054;;;;
2021/01/13 23:55:57;;;;;;;0.7;0.6;;;;;;;3.25;86.89355;931.8585;;;;
2021/01/13 23:58:23;;;;;;;0.9;0.7;;;;;;;3.21;87.2793;931.7859;;;;
